sensor_id;sensor_type;location;lat;lon;timestamp;temperature;humidity
23568;DHT22;11962;50.838;4.430;2022-10-13T00:01:29;14.80;99.90
23568;DHT22;11962;50.838;4.430;2022-10-13T00:03:55;14.70;99.90
23568;DHT22;11962;50.838;4.430;2022-10-13T00:06:45;14.70;99.90
23568;DHT22;11962;50.838;4.430;2022-10-13T00:09:11;14.70;99.90
23568;DHT22;11962;50.838;4.430;2022-10-13T00:11:36;14.70;99.90
23568;DHT22;11962;50.838;4.430;2022-10-13T00:14:03;14.60;99.90
23568;DHT22;11962;50.838;4.430;2022-10-13T00:16:30;14.60;99.90
23568;DHT22;11962;50.838;4.430;2022-10-13T00:18:57;14.60;99.90
23568;DHT22;11962;50.838;4.430;2022-10-13T00:21:48;14.60;99.90
23568;DHT22;11962;50.838;4.430;2022-10-13T00:24:13;14.60;99.90
23568;DHT22;11962;50.838;4.430;2022-10-13T00:26:39;14.60;99.90
23568;DHT22;11962;50.838;4.430;2022-10-13T00:29:08;14.60;99.90
23568;DHT22;11962;50.838;4.430;2022-10-13T00:31:33;14.60;99.90
23568;DHT22;11962;50.838;4.430;2022-10-13T00:34:00;14.60;99.90
23568;DHT22;11962;50.838;4.430;2022-10-13T00:36:26;14.60;99.90
23568;DHT22;11962;50.838;4.430;2022-10-13T00:38:53;14.60;99.90
23568;DHT22;11962;50.838;4.430;2022-10-13T00:41:19;14.60;99.90
23568;DHT22;11962;50.838;4.430;2022-10-13T00:46:28;14.60;99.90
23568;DHT22;11962;50.838;4.430;2022-10-13T00:48:59;14.60;99.90
23568;DHT22;11962;50.838;4.430;2022-10-13T00:51:28;14.70;99.90
23568;DHT22;11962;50.838;4.430;2022-10-13T00:53:56;14.60;99.90
23568;DHT22;11962;50.838;4.430;2022-10-13T00:56:24;14.60;99.90
23568;DHT22;11962;50.838;4.430;2022-10-13T00:58:51;14.60;99.90
23568;DHT22;11962;50.838;4.430;2022-10-13T01:01:17;14.60;99.90
23568;DHT22;11962;50.838;4.430;2022-10-13T01:03:42;14.60;99.90
23568;DHT22;11962;50.838;4.430;2022-10-13T01:06:09;14.60;99.90
23568;DHT22;11962;50.838;4.430;2022-10-13T01:08:38;14.60;99.90
23568;DHT22;11962;50.838;4.430;2022-10-13T01:17:14;14.80;99.90
23568;DHT22;11962;50.838;4.430;2022-10-13T01:31:47;14.60;99.90
23568;DHT22;11962;50.838;4.430;2022-10-13T01:37:17;14.70;99.90
23568;DHT22;11962;50.838;4.430;2022-10-13T01:40:11;14.70;99.90
23568;DHT22;11962;50.838;4.430;2022-10-13T01:42:45;14.70;99.90
23568;DHT22;11962;50.838;4.430;2022-10-13T01:45:15;14.60;99.90
23568;DHT22;11962;50.838;4.430;2022-10-13T01:47:43;14.60;99.90
23568;DHT22;11962;50.838;4.430;2022-10-13T01:50:10;14.60;99.90
23568;DHT22;11962;50.838;4.430;2022-10-13T01:52:38;14.60;99.90
23568;DHT22;11962;50.838;4.430;2022-10-13T01:55:07;14.60;99.90
23568;DHT22;11962;50.838;4.430;2022-10-13T01:57:42;14.60;99.90
23568;DHT22;11962;50.838;4.430;2022-10-13T02:05:55;14.60;99.90
23568;DHT22;11962;50.838;4.430;2022-10-13T02:08:47;14.60;99.90
23568;DHT22;11962;50.838;4.430;2022-10-13T02:11:20;14.60;99.90
23568;DHT22;11962;50.838;4.430;2022-10-13T02:16:24;14.50;99.90
23568;DHT22;11962;50.838;4.430;2022-10-13T02:18:51;14.50;99.90
23568;DHT22;11962;50.838;4.430;2022-10-13T02:21:17;14.50;99.90
23568;DHT22;11962;50.838;4.430;2022-10-13T02:23:53;14.50;99.90
23568;DHT22;11962;50.838;4.430;2022-10-13T02:26:18;14.50;99.90
23568;DHT22;11962;50.838;4.430;2022-10-13T02:28:44;14.50;99.90
23568;DHT22;11962;50.838;4.430;2022-10-13T02:31:10;14.50;99.90
23568;DHT22;11962;50.838;4.430;2022-10-13T02:33:36;14.50;99.90
23568;DHT22;11962;50.838;4.430;2022-10-13T02:36:01;14.50;99.90
23568;DHT22;11962;50.838;4.430;2022-10-13T02:38:27;14.50;99.90
23568;DHT22;11962;50.838;4.430;2022-10-13T02:40:52;14.50;99.90
23568;DHT22;11962;50.838;4.430;2022-10-13T02:43:19;14.40;99.90
23568;DHT22;11962;50.838;4.430;2022-10-13T02:45:44;14.40;99.90
23568;DHT22;11962;50.838;4.430;2022-10-13T02:48:10;14.40;99.90
23568;DHT22;11962;50.838;4.430;2022-10-13T02:50:36;14.40;99.90
23568;DHT22;11962;50.838;4.430;2022-10-13T02:53:01;14.40;99.90
23568;DHT22;11962;50.838;4.430;2022-10-13T02:55:27;14.40;99.90
23568;DHT22;11962;50.838;4.430;2022-10-13T02:57:53;14.30;99.90
23568;DHT22;11962;50.838;4.430;2022-10-13T03:00:19;14.30;99.90
23568;DHT22;11962;50.838;4.430;2022-10-13T03:02:50;14.30;99.90
23568;DHT22;11962;50.838;4.430;2022-10-13T03:05:15;14.30;99.90
23568;DHT22;11962;50.838;4.430;2022-10-13T03:07:41;14.30;99.90
23568;DHT22;11962;50.838;4.430;2022-10-13T03:10:07;14.40;99.90
23568;DHT22;11962;50.838;4.430;2022-10-13T03:12:33;14.30;99.90
23568;DHT22;11962;50.838;4.430;2022-10-13T03:14:59;14.40;99.90
23568;DHT22;11962;50.838;4.430;2022-10-13T03:17:25;14.40;99.90
23568;DHT22;11962;50.838;4.430;2022-10-13T03:19:51;14.30;99.90
23568;DHT22;11962;50.838;4.430;2022-10-13T03:22:17;14.40;99.90
23568;DHT22;11962;50.838;4.430;2022-10-13T03:24:42;14.30;99.90
23568;DHT22;11962;50.838;4.430;2022-10-13T03:27:08;14.30;99.90
23568;DHT22;11962;50.838;4.430;2022-10-13T03:29:34;14.40;99.90
23568;DHT22;11962;50.838;4.430;2022-10-13T03:31:59;14.40;99.90
23568;DHT22;11962;50.838;4.430;2022-10-13T03:34:25;14.30;99.90
23568;DHT22;11962;50.838;4.430;2022-10-13T03:36:51;14.30;99.90
23568;DHT22;11962;50.838;4.430;2022-10-13T03:39:16;14.30;99.90
23568;DHT22;11962;50.838;4.430;2022-10-13T03:41:42;14.30;99.90
23568;DHT22;11962;50.838;4.430;2022-10-13T03:44:10;14.30;99.90
23568;DHT22;11962;50.838;4.430;2022-10-13T03:46:37;14.30;99.90
23568;DHT22;11962;50.838;4.430;2022-10-13T03:49:02;14.30;99.90
23568;DHT22;11962;50.838;4.430;2022-10-13T03:51:28;14.30;99.90
23568;DHT22;11962;50.838;4.430;2022-10-13T03:53:53;14.30;99.90
23568;DHT22;11962;50.838;4.430;2022-10-13T03:56:22;14.30;99.90
23568;DHT22;11962;50.838;4.430;2022-10-13T03:58:48;14.30;99.90
23568;DHT22;11962;50.838;4.430;2022-10-13T04:01:18;14.30;99.90
23568;DHT22;11962;50.838;4.430;2022-10-13T04:03:44;14.30;99.90
23568;DHT22;11962;50.838;4.430;2022-10-13T04:06:10;14.30;99.90
23568;DHT22;11962;50.838;4.430;2022-10-13T04:08:36;14.30;99.90
23568;DHT22;11962;50.838;4.430;2022-10-13T04:11:04;14.30;99.90
23568;DHT22;11962;50.838;4.430;2022-10-13T04:13:30;14.30;99.90
23568;DHT22;11962;50.838;4.430;2022-10-13T04:16:04;14.30;99.90
23568;DHT22;11962;50.838;4.430;2022-10-13T04:18:30;14.30;99.90
23568;DHT22;11962;50.838;4.430;2022-10-13T04:20:56;14.30;99.90
23568;DHT22;11962;50.838;4.430;2022-10-13T04:23:22;14.30;99.90
23568;DHT22;11962;50.838;4.430;2022-10-13T04:25:48;14.30;99.90
23568;DHT22;11962;50.838;4.430;2022-10-13T04:28:13;14.30;99.90
23568;DHT22;11962;50.838;4.430;2022-10-13T04:30:39;14.30;99.90
23568;DHT22;11962;50.838;4.430;2022-10-13T04:33:05;14.30;99.90
23568;DHT22;11962;50.838;4.430;2022-10-13T04:35:31;14.30;99.90
23568;DHT22;11962;50.838;4.430;2022-10-13T04:37:56;14.30;99.90
23568;DHT22;11962;50.838;4.430;2022-10-13T04:40:22;14.30;99.90
23568;DHT22;11962;50.838;4.430;2022-10-13T04:42:48;14.30;99.90
23568;DHT22;11962;50.838;4.430;2022-10-13T04:45:14;14.30;99.90
23568;DHT22;11962;50.838;4.430;2022-10-13T04:47:40;14.30;99.90
23568;DHT22;11962;50.838;4.430;2022-10-13T04:50:06;14.30;99.90
23568;DHT22;11962;50.838;4.430;2022-10-13T04:52:33;14.40;99.90
23568;DHT22;11962;50.838;4.430;2022-10-13T04:54:59;14.40;99.90
23568;DHT22;11962;50.838;4.430;2022-10-13T04:57:24;14.40;99.90
23568;DHT22;11962;50.838;4.430;2022-10-13T04:59:50;14.30;99.90
23568;DHT22;11962;50.838;4.430;2022-10-13T05:02:16;14.30;99.90
23568;DHT22;11962;50.838;4.430;2022-10-13T05:04:41;14.40;99.90
23568;DHT22;11962;50.838;4.430;2022-10-13T05:07:07;14.40;99.90
23568;DHT22;11962;50.838;4.430;2022-10-13T05:09:45;14.40;99.90
23568;DHT22;11962;50.838;4.430;2022-10-13T05:12:11;14.40;99.90
23568;DHT22;11962;50.838;4.430;2022-10-13T05:14:48;14.40;99.90
23568;DHT22;11962;50.838;4.430;2022-10-13T05:17:13;14.50;99.90
23568;DHT22;11962;50.838;4.430;2022-10-13T05:19:39;14.40;99.90
23568;DHT22;11962;50.838;4.430;2022-10-13T05:22:18;14.50;99.90
23568;DHT22;11962;50.838;4.430;2022-10-13T05:24:46;14.50;99.90
23568;DHT22;11962;50.838;4.430;2022-10-13T05:27:12;14.50;99.90
23568;DHT22;11962;50.838;4.430;2022-10-13T05:29:58;14.50;99.90
23568;DHT22;11962;50.838;4.430;2022-10-13T05:32:25;14.50;99.90
23568;DHT22;11962;50.838;4.430;2022-10-13T05:34:52;14.40;99.90
23568;DHT22;11962;50.838;4.430;2022-10-13T05:37:19;14.40;99.90
23568;DHT22;11962;50.838;4.430;2022-10-13T05:39:47;14.40;99.90
23568;DHT22;11962;50.838;4.430;2022-10-13T05:45:00;14.40;99.90
23568;DHT22;11962;50.838;4.430;2022-10-13T05:47:26;14.40;99.90
23568;DHT22;11962;50.838;4.430;2022-10-13T05:49:55;14.40;99.90
23568;DHT22;11962;50.838;4.430;2022-10-13T05:52:22;14.40;99.90
23568;DHT22;11962;50.838;4.430;2022-10-13T05:58:12;14.40;99.90
23568;DHT22;11962;50.838;4.430;2022-10-13T06:00:48;14.40;99.90
23568;DHT22;11962;50.838;4.430;2022-10-13T06:03:20;14.40;99.90
23568;DHT22;11962;50.838;4.430;2022-10-13T06:05:52;14.40;99.90
23568;DHT22;11962;50.838;4.430;2022-10-13T06:08:18;14.40;99.90
23568;DHT22;11962;50.838;4.430;2022-10-13T06:10:56;14.40;99.90
23568;DHT22;11962;50.838;4.430;2022-10-13T06:13:22;14.40;99.90
23568;DHT22;11962;50.838;4.430;2022-10-13T06:15:49;14.40;99.90
23568;DHT22;11962;50.838;4.430;2022-10-13T06:18:17;14.50;99.90
23568;DHT22;11962;50.838;4.430;2022-10-13T06:20:52;14.50;99.90
23568;DHT22;11962;50.838;4.430;2022-10-13T06:23:18;14.50;99.90
23568;DHT22;11962;50.838;4.430;2022-10-13T06:29:27;14.60;99.90
23568;DHT22;11962;50.838;4.430;2022-10-13T06:31:53;14.60;99.90
23568;DHT22;11962;50.838;4.430;2022-10-13T06:34:19;14.60;99.90
23568;DHT22;11962;50.838;4.430;2022-10-13T06:36:44;14.60;99.90
23568;DHT22;11962;50.838;4.430;2022-10-13T06:39:10;14.60;99.90
23568;DHT22;11962;50.838;4.430;2022-10-13T06:42:07;14.70;99.90
23568;DHT22;11962;50.838;4.430;2022-10-13T06:44:33;14.70;99.90
23568;DHT22;11962;50.838;4.430;2022-10-13T06:46:59;14.80;99.90
23568;DHT22;11962;50.838;4.430;2022-10-13T06:49:25;14.80;99.90
23568;DHT22;11962;50.838;4.430;2022-10-13T06:51:51;14.80;99.90
23568;DHT22;11962;50.838;4.430;2022-10-13T06:54:16;14.80;99.90
23568;DHT22;11962;50.838;4.430;2022-10-13T06:57:13;14.90;99.90
23568;DHT22;11962;50.838;4.430;2022-10-13T06:59:42;14.90;99.90
23568;DHT22;11962;50.838;4.430;2022-10-13T07:02:11;14.90;99.90
23568;DHT22;11962;50.838;4.430;2022-10-13T07:04:36;14.80;99.90
23568;DHT22;11962;50.838;4.430;2022-10-13T07:07:02;14.80;99.90
23568;DHT22;11962;50.838;4.430;2022-10-13T07:09:28;14.80;99.90
23568;DHT22;11962;50.838;4.430;2022-10-13T07:11:53;14.90;99.90
23568;DHT22;11962;50.838;4.430;2022-10-13T07:14:19;14.90;99.90
23568;DHT22;11962;50.838;4.430;2022-10-13T07:16:47;15.00;99.90
23568;DHT22;11962;50.838;4.430;2022-10-13T07:19:13;15.00;99.90
23568;DHT22;11962;50.838;4.430;2022-10-13T07:21:38;15.10;99.90
23568;DHT22;11962;50.838;4.430;2022-10-13T07:24:04;15.10;99.90
23568;DHT22;11962;50.838;4.430;2022-10-13T07:26:30;15.20;99.90
23568;DHT22;11962;50.838;4.430;2022-10-13T07:28:58;15.30;99.90
23568;DHT22;11962;50.838;4.430;2022-10-13T07:31:24;15.40;99.90
23568;DHT22;11962;50.838;4.430;2022-10-13T07:33:50;15.30;99.90
23568;DHT22;11962;50.838;4.430;2022-10-13T07:36:16;15.40;99.90
23568;DHT22;11962;50.838;4.430;2022-10-13T07:38:42;15.20;99.90
23568;DHT22;11962;50.838;4.430;2022-10-13T07:41:09;15.30;99.90
23568;DHT22;11962;50.838;4.430;2022-10-13T07:43:36;15.30;99.90
23568;DHT22;11962;50.838;4.430;2022-10-13T07:46:02;15.30;99.90
23568;DHT22;11962;50.838;4.430;2022-10-13T07:48:31;15.20;99.90
23568;DHT22;11962;50.838;4.430;2022-10-13T07:50:57;15.30;99.90
23568;DHT22;11962;50.838;4.430;2022-10-13T07:53:23;15.30;99.90
23568;DHT22;11962;50.838;4.430;2022-10-13T07:55:49;15.40;99.90
23568;DHT22;11962;50.838;4.430;2022-10-13T07:58:15;15.40;99.90
23568;DHT22;11962;50.838;4.430;2022-10-13T08:00:40;15.50;99.90
23568;DHT22;11962;50.838;4.430;2022-10-13T08:03:06;15.50;99.90
23568;DHT22;11962;50.838;4.430;2022-10-13T08:05:32;15.50;99.90
23568;DHT22;11962;50.838;4.430;2022-10-13T08:07:58;15.50;99.90
23568;DHT22;11962;50.838;4.430;2022-10-13T08:10:24;15.50;99.90
23568;DHT22;11962;50.838;4.430;2022-10-13T08:16:05;15.60;99.90
23568;DHT22;11962;50.838;4.430;2022-10-13T08:18:31;15.60;99.90
23568;DHT22;11962;50.838;4.430;2022-10-13T08:21:00;15.50;99.90
23568;DHT22;11962;50.838;4.430;2022-10-13T08:23:26;15.40;99.90
23568;DHT22;11962;50.838;4.430;2022-10-13T08:25:52;15.50;99.90
23568;DHT22;11962;50.838;4.430;2022-10-13T08:28:26;15.50;99.90
23568;DHT22;11962;50.838;4.430;2022-10-13T08:30:55;15.50;99.90
23568;DHT22;11962;50.838;4.430;2022-10-13T08:33:24;15.60;99.90
23568;DHT22;11962;50.838;4.430;2022-10-13T08:35:51;15.70;99.90
23568;DHT22;11962;50.838;4.430;2022-10-13T08:38:17;15.90;99.90
23568;DHT22;11962;50.838;4.430;2022-10-13T08:40:47;16.10;99.90
23568;DHT22;11962;50.838;4.430;2022-10-13T08:43:18;16.30;99.90
23568;DHT22;11962;50.838;4.430;2022-10-13T08:49:07;16.70;99.90
23568;DHT22;11962;50.838;4.430;2022-10-13T08:51:33;16.80;99.90
23568;DHT22;11962;50.838;4.430;2022-10-13T08:53:59;16.90;99.90
23568;DHT22;11962;50.838;4.430;2022-10-13T09:03:22;17.00;99.90
23568;DHT22;11962;50.838;4.430;2022-10-13T09:06:18;16.80;99.90
23568;DHT22;11962;50.838;4.430;2022-10-13T09:11:19;16.80;99.90
23568;DHT22;11962;50.838;4.430;2022-10-13T09:14:09;16.70;99.90
23568;DHT22;11962;50.838;4.430;2022-10-13T09:16:38;16.80;99.90
23568;DHT22;11962;50.838;4.430;2022-10-13T09:19:29;16.90;99.90
23568;DHT22;11962;50.838;4.430;2022-10-13T09:22:25;16.90;99.90
23568;DHT22;11962;50.838;4.430;2022-10-13T09:27:54;16.90;99.90
23568;DHT22;11962;50.838;4.430;2022-10-13T09:38:23;16.80;99.90
23568;DHT22;11962;50.838;4.430;2022-10-13T09:41:03;16.90;99.90
23568;DHT22;11962;50.838;4.430;2022-10-13T09:46:33;17.20;99.90
23568;DHT22;11962;50.838;4.430;2022-10-13T09:52:14;17.50;99.90
23568;DHT22;11962;50.838;4.430;2022-10-13T09:54:45;17.60;99.90
23568;DHT22;11962;50.838;4.430;2022-10-13T10:00:26;17.70;99.90
23568;DHT22;11962;50.838;4.430;2022-10-13T10:03:15;17.80;99.90
23568;DHT22;11962;50.838;4.430;2022-10-13T10:05:58;17.90;99.90
23568;DHT22;11962;50.838;4.430;2022-10-13T10:08:38;18.20;99.90
23568;DHT22;11962;50.838;4.430;2022-10-13T10:11:18;18.20;99.90
23568;DHT22;11962;50.838;4.430;2022-10-13T10:25:33;18.80;99.90
23568;DHT22;11962;50.838;4.430;2022-10-13T10:31:37;18.60;99.90
23568;DHT22;11962;50.838;4.430;2022-10-13T10:36:56;18.20;99.90
23568;DHT22;11962;50.838;4.430;2022-10-13T10:39:31;18.10;99.90
23568;DHT22;11962;50.838;4.430;2022-10-13T10:47:53;17.80;99.90
23568;DHT22;11962;50.838;4.430;2022-10-13T10:50:22;17.60;99.90
23568;DHT22;11962;50.838;4.430;2022-10-13T11:01:18;17.10;99.90
23568;DHT22;11962;50.838;4.430;2022-10-13T11:13:16;17.20;99.90
23568;DHT22;11962;50.838;4.430;2022-10-13T11:15:45;17.10;99.90
23568;DHT22;11962;50.838;4.430;2022-10-13T11:21:14;17.00;99.90
23568;DHT22;11962;50.838;4.430;2022-10-13T11:23:47;17.00;99.90
23568;DHT22;11962;50.838;4.430;2022-10-13T11:26:41;16.90;99.90
23568;DHT22;11962;50.838;4.430;2022-10-13T11:35:52;16.70;99.90
23568;DHT22;11962;50.838;4.430;2022-10-13T11:38:31;16.80;99.90
23568;DHT22;11962;50.838;4.430;2022-10-13T11:41:26;16.80;99.90
23568;DHT22;11962;50.838;4.430;2022-10-13T11:44:14;17.00;99.90
23568;DHT22;11962;50.838;4.430;2022-10-13T11:49:42;17.50;99.90
23568;DHT22;11962;50.838;4.430;2022-10-13T11:52:39;17.70;99.90
23568;DHT22;11962;50.838;4.430;2022-10-13T11:55:32;17.90;99.90
23568;DHT22;11962;50.838;4.430;2022-10-13T11:58:18;18.10;99.90
23568;DHT22;11962;50.838;4.430;2022-10-13T12:01:21;18.40;99.90
23568;DHT22;11962;50.838;4.430;2022-10-13T12:03:47;18.70;99.90
23568;DHT22;11962;50.838;4.430;2022-10-13T12:06:24;18.80;99.90
23568;DHT22;11962;50.838;4.430;2022-10-13T12:08:51;18.90;99.90
23568;DHT22;11962;50.838;4.430;2022-10-13T12:11:36;18.80;99.90
23568;DHT22;11962;50.838;4.430;2022-10-13T12:14:05;18.80;99.90
23568;DHT22;11962;50.838;4.430;2022-10-13T12:16:32;18.60;99.90
23568;DHT22;11962;50.838;4.430;2022-10-13T12:19:08;18.50;99.90
23568;DHT22;11962;50.838;4.430;2022-10-13T12:21:48;18.50;99.90
23568;DHT22;11962;50.838;4.430;2022-10-13T12:24:13;18.40;99.90
23568;DHT22;11962;50.838;4.430;2022-10-13T12:26:39;18.30;99.90
23568;DHT22;11962;50.838;4.430;2022-10-13T12:29:11;18.30;99.90
23568;DHT22;11962;50.838;4.430;2022-10-13T12:31:42;18.30;99.90
23568;DHT22;11962;50.838;4.430;2022-10-13T12:34:27;18.30;99.90
23568;DHT22;11962;50.838;4.430;2022-10-13T12:36:59;18.30;99.90
23568;DHT22;11962;50.838;4.430;2022-10-13T12:39:28;18.30;99.90
23568;DHT22;11962;50.838;4.430;2022-10-13T12:41:55;18.30;99.90
23568;DHT22;11962;50.838;4.430;2022-10-13T12:44:40;18.30;99.90
23568;DHT22;11962;50.838;4.430;2022-10-13T12:47:36;18.20;99.90
23568;DHT22;11962;50.838;4.430;2022-10-13T12:50:33;18.30;99.90
23568;DHT22;11962;50.838;4.430;2022-10-13T12:53:18;18.40;99.90
23568;DHT22;11962;50.838;4.430;2022-10-13T12:55:53;18.60;99.90
23568;DHT22;11962;50.838;4.430;2022-10-13T12:58:28;18.60;99.90
23568;DHT22;11962;50.838;4.430;2022-10-13T13:03:34;18.60;99.90
23568;DHT22;11962;50.838;4.430;2022-10-13T13:08:34;18.30;99.90
23568;DHT22;11962;50.838;4.430;2022-10-13T13:11:03;18.20;99.90
23568;DHT22;11962;50.838;4.430;2022-10-13T13:13:29;18.10;99.90
23568;DHT22;11962;50.838;4.430;2022-10-13T13:19:21;17.80;99.90
23568;DHT22;11962;50.838;4.430;2022-10-13T13:21:47;17.80;99.90
23568;DHT22;11962;50.838;4.430;2022-10-13T13:24:12;17.70;99.90
23568;DHT22;11962;50.838;4.430;2022-10-13T13:26:38;17.60;99.90
23568;DHT22;11962;50.838;4.430;2022-10-13T13:29:07;17.50;99.90
23568;DHT22;11962;50.838;4.430;2022-10-13T13:31:33;17.50;99.90
23568;DHT22;11962;50.838;4.430;2022-10-13T13:33:58;17.50;99.90
23568;DHT22;11962;50.838;4.430;2022-10-13T13:36:24;17.30;99.90
23568;DHT22;11962;50.838;4.430;2022-10-13T13:38:51;17.30;99.90
23568;DHT22;11962;50.838;4.430;2022-10-13T13:41:18;17.20;99.90
23568;DHT22;11962;50.838;4.430;2022-10-13T13:43:44;17.10;99.90
23568;DHT22;11962;50.838;4.430;2022-10-13T13:46:19;17.00;99.90
23568;DHT22;11962;50.838;4.430;2022-10-13T13:48:46;17.00;99.90
23568;DHT22;11962;50.838;4.430;2022-10-13T13:51:11;16.90;99.90
23568;DHT22;11962;50.838;4.430;2022-10-13T13:53:37;16.90;99.90
23568;DHT22;11962;50.838;4.430;2022-10-13T13:56:12;16.80;99.90
23568;DHT22;11962;50.838;4.430;2022-10-13T13:58:38;16.80;99.90
23568;DHT22;11962;50.838;4.430;2022-10-13T14:04:25;16.80;99.90
23568;DHT22;11962;50.838;4.430;2022-10-13T14:06:51;16.80;99.90
23568;DHT22;11962;50.838;4.430;2022-10-13T14:09:17;16.90;99.90
23568;DHT22;11962;50.838;4.430;2022-10-13T14:11:43;17.00;99.90
23568;DHT22;11962;50.838;4.430;2022-10-13T14:14:08;17.10;99.90
23568;DHT22;11962;50.838;4.430;2022-10-13T14:16:52;17.30;99.90
23568;DHT22;11962;50.838;4.430;2022-10-13T14:19:18;17.30;99.90
23568;DHT22;11962;50.838;4.430;2022-10-13T14:21:44;17.40;99.90
23568;DHT22;11962;50.838;4.430;2022-10-13T14:24:10;17.50;99.90
23568;DHT22;11962;50.838;4.430;2022-10-13T14:26:36;17.50;99.90
23568;DHT22;11962;50.838;4.430;2022-10-13T14:29:02;17.50;99.90
23568;DHT22;11962;50.838;4.430;2022-10-13T14:31:28;17.50;99.90
23568;DHT22;11962;50.838;4.430;2022-10-13T14:33:55;17.60;99.90
23568;DHT22;11962;50.838;4.430;2022-10-13T14:36:20;17.80;99.90
23568;DHT22;11962;50.838;4.430;2022-10-13T14:38:46;17.90;99.90
23568;DHT22;11962;50.838;4.430;2022-10-13T14:41:12;17.90;99.90
23568;DHT22;11962;50.838;4.430;2022-10-13T14:43:37;17.90;99.90
23568;DHT22;11962;50.838;4.430;2022-10-13T14:46:05;17.80;99.90
23568;DHT22;11962;50.838;4.430;2022-10-13T14:48:32;17.70;99.90
23568;DHT22;11962;50.838;4.430;2022-10-13T14:50:57;17.60;99.90
23568;DHT22;11962;50.838;4.430;2022-10-13T14:53:24;17.60;99.90
23568;DHT22;11962;50.838;4.430;2022-10-13T14:55:51;17.50;99.90
23568;DHT22;11962;50.838;4.430;2022-10-13T14:58:17;17.40;99.90
23568;DHT22;11962;50.838;4.430;2022-10-13T15:00:42;17.40;99.90
23568;DHT22;11962;50.838;4.430;2022-10-13T15:03:08;17.30;99.90
23568;DHT22;11962;50.838;4.430;2022-10-13T15:05:37;17.20;99.90
23568;DHT22;11962;50.838;4.430;2022-10-13T15:08:03;17.20;99.90
23568;DHT22;11962;50.838;4.430;2022-10-13T15:10:29;17.30;99.90
23568;DHT22;11962;50.838;4.430;2022-10-13T15:12:55;17.20;99.90
23568;DHT22;11962;50.838;4.430;2022-10-13T15:15:29;17.20;99.90
23568;DHT22;11962;50.838;4.430;2022-10-13T15:17:55;17.20;99.90
23568;DHT22;11962;50.838;4.430;2022-10-13T15:20:21;17.20;99.90
23568;DHT22;11962;50.838;4.430;2022-10-13T15:22:47;17.10;99.90
23568;DHT22;11962;50.838;4.430;2022-10-13T15:25:13;17.10;99.90
23568;DHT22;11962;50.838;4.430;2022-10-13T15:27:39;17.00;99.90
23568;DHT22;11962;50.838;4.430;2022-10-13T15:30:06;17.00;99.90
23568;DHT22;11962;50.838;4.430;2022-10-13T15:32:32;17.10;99.90
23568;DHT22;11962;50.838;4.430;2022-10-13T15:34:57;17.10;99.90
23568;DHT22;11962;50.838;4.430;2022-10-13T15:37:23;17.20;99.90
23568;DHT22;11962;50.838;4.430;2022-10-13T15:40:08;17.20;99.90
23568;DHT22;11962;50.838;4.430;2022-10-13T15:42:34;17.10;99.90
23568;DHT22;11962;50.838;4.430;2022-10-13T15:44:59;17.00;99.90
23568;DHT22;11962;50.838;4.430;2022-10-13T15:47:25;17.00;99.90
23568;DHT22;11962;50.838;4.430;2022-10-13T15:49:50;17.00;99.90
23568;DHT22;11962;50.838;4.430;2022-10-13T15:52:16;17.00;99.90
23568;DHT22;11962;50.838;4.430;2022-10-13T15:54:42;17.00;99.90
23568;DHT22;11962;50.838;4.430;2022-10-13T15:57:14;16.90;99.90
23568;DHT22;11962;50.838;4.430;2022-10-13T15:59:40;16.80;99.90
23568;DHT22;11962;50.838;4.430;2022-10-13T16:02:07;16.80;99.90
23568;DHT22;11962;50.838;4.430;2022-10-13T16:04:33;16.70;99.90
23568;DHT22;11962;50.838;4.430;2022-10-13T16:06:58;16.60;99.90
23568;DHT22;11962;50.838;4.430;2022-10-13T16:09:24;16.50;99.90
23568;DHT22;11962;50.838;4.430;2022-10-13T16:11:52;16.50;99.90
23568;DHT22;11962;50.838;4.430;2022-10-13T16:14:19;16.50;99.90
23568;DHT22;11962;50.838;4.430;2022-10-13T16:16:44;16.50;99.90
23568;DHT22;11962;50.838;4.430;2022-10-13T16:19:10;16.50;99.90
23568;DHT22;11962;50.838;4.430;2022-10-13T16:21:36;16.40;99.90
23568;DHT22;11962;50.838;4.430;2022-10-13T16:24:02;16.40;99.90
23568;DHT22;11962;50.838;4.430;2022-10-13T16:26:29;16.40;99.90
23568;DHT22;11962;50.838;4.430;2022-10-13T16:28:55;16.40;99.90
23568;DHT22;11962;50.838;4.430;2022-10-13T16:31:23;16.40;99.90
23568;DHT22;11962;50.838;4.430;2022-10-13T16:33:49;16.40;99.90
23568;DHT22;11962;50.838;4.430;2022-10-13T16:36:16;16.40;99.90
23568;DHT22;11962;50.838;4.430;2022-10-13T16:38:44;16.30;99.90
23568;DHT22;11962;50.838;4.430;2022-10-13T16:41:15;16.30;99.90
23568;DHT22;11962;50.838;4.430;2022-10-13T16:43:42;16.30;99.90
23568;DHT22;11962;50.838;4.430;2022-10-13T16:46:09;16.20;99.90
23568;DHT22;11962;50.838;4.430;2022-10-13T16:48:38;16.20;99.90
23568;DHT22;11962;50.838;4.430;2022-10-13T16:51:05;16.20;99.90
23568;DHT22;11962;50.838;4.430;2022-10-13T16:53:32;16.20;99.90
23568;DHT22;11962;50.838;4.430;2022-10-13T16:55:58;16.20;99.90
23568;DHT22;11962;50.838;4.430;2022-10-13T16:58:23;16.20;99.90
23568;DHT22;11962;50.838;4.430;2022-10-13T17:00:49;16.20;99.90
23568;DHT22;11962;50.838;4.430;2022-10-13T17:03:15;16.20;99.90
23568;DHT22;11962;50.838;4.430;2022-10-13T17:05:40;16.20;99.90
23568;DHT22;11962;50.838;4.430;2022-10-13T17:08:06;16.20;99.90
23568;DHT22;11962;50.838;4.430;2022-10-13T17:10:32;16.20;99.90
23568;DHT22;11962;50.838;4.430;2022-10-13T17:12:58;16.20;99.90
23568;DHT22;11962;50.838;4.430;2022-10-13T17:15:24;16.20;99.90
23568;DHT22;11962;50.838;4.430;2022-10-13T17:17:50;16.20;99.90
23568;DHT22;11962;50.838;4.430;2022-10-13T17:20:16;16.20;99.90
23568;DHT22;11962;50.838;4.430;2022-10-13T17:22:41;16.20;99.90
23568;DHT22;11962;50.838;4.430;2022-10-13T17:25:07;16.20;99.90
23568;DHT22;11962;50.838;4.430;2022-10-13T17:27:34;16.20;99.90
23568;DHT22;11962;50.838;4.430;2022-10-13T17:30:01;16.20;99.90
23568;DHT22;11962;50.838;4.430;2022-10-13T17:32:30;16.20;99.90
23568;DHT22;11962;50.838;4.430;2022-10-13T17:34:55;16.20;99.90
23568;DHT22;11962;50.838;4.430;2022-10-13T17:37:22;16.20;99.90
23568;DHT22;11962;50.838;4.430;2022-10-13T17:39:47;16.20;99.90
23568;DHT22;11962;50.838;4.430;2022-10-13T17:42:13;16.20;99.90
23568;DHT22;11962;50.838;4.430;2022-10-13T17:44:40;16.20;99.90
23568;DHT22;11962;50.838;4.430;2022-10-13T17:47:19;16.20;99.90
23568;DHT22;11962;50.838;4.430;2022-10-13T17:49:45;16.20;99.90
23568;DHT22;11962;50.838;4.430;2022-10-13T17:52:11;16.20;99.90
23568;DHT22;11962;50.838;4.430;2022-10-13T17:54:36;16.20;99.90
23568;DHT22;11962;50.838;4.430;2022-10-13T17:57:02;16.20;99.90
23568;DHT22;11962;50.838;4.430;2022-10-13T17:59:28;16.30;99.90
23568;DHT22;11962;50.838;4.430;2022-10-13T18:01:54;16.30;99.90
23568;DHT22;11962;50.838;4.430;2022-10-13T18:04:38;16.20;99.90
23568;DHT22;11962;50.838;4.430;2022-10-13T18:07:04;16.30;99.90